Adin, CA

3:07 AM PDT on March 24, 2017 (GMT -0700)
Adin Community Bible Church | | Change Station
Active Advisory: Wind Advisory

Elev 4222 ft 41.19 °N, 120.94 °W | Updated 28 seconds ago

Overcast
Overcast
40.1 °F
Feels Like 37 °F
N
4.2
Wind Variable Wind from SE

Today
High -- | Low -- °F
--% Chance of Precip.
Yesterday
High -- | Low -- °F
Precip. -- in
Pressure 30.04 in
Visibility 10.0 miles
Clouds Few 3800 ft
Mostly Cloudy 5000 ft
Windchill 37 °F
Dew Point 30 °F
Humidity 66%
Rainfall 0.00 in
Snow Depth Not available.
6:59 AM 7:20 PM
Waning Crescent, 16% visible
METAR KAAT 240955Z AUTO 18011KT 10SM FEW038 BKN050 04/M02 A3006 RMK AO2 SLP171 T00441022 TSNO
Pressure 30.04 in
Visibility 10.0 miles
Clouds Few 3800 ft
Mostly Cloudy 5000 ft
Windchill 37 °F
Dew Point 30 °F
Humidity 66%
Rainfall 0.00 in
Snow Depth Not available.
6:59 AM 7:20 PM
Waning Crescent, 16% visible
METAR KAAT 240955Z AUTO 18011KT 10SM FEW038 BKN050 04/M02 A3006 RMK AO2 SLP171 T00441022 TSNO

Get Your Daily Forecast Email!

Thanks for signing up!

Be on the lookout for a verification email in your inbox.

You'll start receiving severe weather alerts in your inbox..

×

10-Day Weather Forecast

Almanac

Astronomy

Mar. 24, 2017 Rise Set
Actual Time
Civil Twilight
Nautical Twilight
Astronomical Twilight
Moon
Length of Visible Light
Length of Day
Tomorrow will be .
, % of the Moon is Illuminated

Today's Extremes

State Highs State Lows

Community

WunderPhotos

Upload Photos

1,962,540 photos uploaded!

WunderBlog® & News

Nearby

Air Quality

  Air Quality AQ Index Pollutant
Not available.

Snow Depth

Station Depth Elevation

Earthquake Activity

City Distance Mag. Time & Date
Minimum magnitude displayed is 2.5.

Earthquake Activity

City Distance Mag. Time & Date
Minimum magnitude displayed is 2.5.

Coastal Water Temperatures

Place Temperature

Stations

Nearby Weather Stations

Station Location Temp. Windchill Dew Point Humidity Wind Precip. Elev Updated Type
                   

Watches & Warnings

Wind Advisory
Issued: 1:59 PM PDT Mar. 23, 2017 – National Weather Service

... Wind Advisory remains in effect from 2 am to 5 PM PDT Friday...

* winds... southwest 30 to 35 mph with gusts to 55 mph.

* Timing... winds will peak Friday morning, then decrease late
Friday afternoon.

* Locations include... the Warner Mountains, including Highway 299
at the Cedarville pass.

* Impacts... strong Crosswinds will make driving difficult for
high profile vehicles.

* View the hazard area in detail at
http://weather.Gov/Medford/hazard

Precautionary/preparedness actions...

A Wind Advisory means that winds of 35 mph are expected with
higher gusts possible. Winds this strong can make driving
difficult, especially for high profile vehicles. Use extra
caution.



Bpn